Mattapoisett, MA

4:02 AM EDT on April 25, 2017 (GMT -0400)
Head of the Harbor Weather Station | | Change Station

Elev 0 ft 41.66 °N, 70.82 °W | Updated 38 seconds ago

Overcast
Overcast
50.3 °F
Feels Like 50.3 °F
N
2.0
Wind Variable Wind from North

Today
High -- | Low -- °F
--% Chance of Precip.
Yesterday
High -- | Low -- °F
Precip. -- in
Pressure 30.18 in
Visibility 10.0 miles
Clouds Mostly Cloudy 1600 ft
Overcast 10000 ft
Dew Point 48 °F
Humidity 91%
Rainfall 0.00 in
Snow Depth Not available.
5:47 AM 7:35 PM
Waning Crescent, 2% visible
METAR KEWB 250753Z AUTO 06006KT 10SM BKN016 OVC100 10/08 A3018 RMK AO2 RAB0654E30 SLP219 P0000 T01000083
Pressure 30.18 in
Visibility 10.0 miles
Clouds Mostly Cloudy 1600 ft
Overcast 10000 ft
Dew Point 48 °F
Humidity 91%
Rainfall 0.00 in
Snow Depth Not available.
5:47 AM 7:35 PM
Waning Crescent, 2% visible
METAR KEWB 250753Z AUTO 06006KT 10SM BKN016 OVC100 10/08 A3018 RMK AO2 RAB0654E30 SLP219 P0000 T01000083

Get Severe Weather Alerts

Thanks for signing up!

Be on the lookout for a verification email in your inbox.

You'll start receiving the daily forecast at 8 AM.

×

10-Day Weather Forecast

Almanac

Astronomy

Apr. 25, 2017 Rise Set
Actual Time
Civil Twilight
Nautical Twilight
Astronomical Twilight
Moon
Length of Visible Light
Length of Day
Tomorrow will be .
, % of the Moon is Illuminated

Today's Extremes

State Highs State Lows

Community

WunderPhotos

WunderBlog® & News

Nearby

Air Quality

  Air Quality AQ Index Pollutant
Not available.

Snow Depth

Station Depth Elevation

Earthquake Activity

City Distance Mag. Time & Date
Minimum magnitude displayed is 2.5.

Coastal Water Temperatures

Place Temperature

Stations

Nearby Weather Stations

Station Location Temp. Windchill Dew Point Humidity Wind Precip. Elev Updated Type
                   

Watches & Warnings

There are currently no watches in effect.